Time;durP1;ratioP1;P1;durP2;ratioP2;P2;SDS_P1;SDS_P2;PMS_P1;PMS_P2;Temp;Humidity;BMP_temperature;BMP_pressure;BME280_temperature;BME280_humidity;BME280_pressure;Samples;Min_cycle;Max_cycle;Signal;HPM_P1;HPM_P2
2022/01/22 00:01:36;;;;;;;8.30;4.18;;;;;;;-5.39;65.88;93524.22;5069514;28;20031;-38
2022/01/22 00:04:02;;;;;;;6.57;4.20;;;;;;;-5.45;64.55;93518.69;5069554;28;20079;-39
2022/01/22 00:06:27;;;;;;;6.20;3.28;;;;;;;-5.26;64.29;93518.72;5069765;28;20398;-38
2022/01/22 00:08:53;;;;;;;4.35;2.78;;;;;;;-5.29;63.17;93520.38;5069926;28;20515;-40
2022/01/22 00:11:19;;;;;;;7.43;3.85;;;;;;;-5.15;63.43;93532.50;5055247;28;20117;-40
2022/01/22 00:16:42;;;;;;;4.82;3.30;;;;;;;-5.04;63.50;93528.16;5030435;28;20044;-38
2022/01/22 00:19:09;;;;;;;8.02;3.58;;;;;;;-4.92;62.51;93529.22;5053930;28;20021;-37
2022/01/22 00:21:36;;;;;;;10.20;5.13;;;;;;;-4.92;61.58;93527.28;5053566;28;20032;-38
2022/01/22 00:24:02;;;;;;;8.65;3.30;;;;;;;-5.04;61.69;93525.47;5053825;28;20045;-38
2022/01/22 00:26:28;;;;;;;6.10;3.70;;;;;;;-5.17;62.11;93519.47;5053569;28;20518;-38
2022/01/22 00:28:53;;;;;;;7.22;3.67;;;;;;;-5.32;62.42;93523.19;5053685;28;20105;-38
2022/01/22 00:31:19;;;;;;;11.75;4.82;;;;;;;-5.47;62.13;93533.75;5053404;28;20036;-40
2022/01/22 00:33:45;;;;;;;10.00;5.55;;;;;;;-5.48;62.10;93521.53;5067210;28;20027;-39
2022/01/22 00:36:10;;;;;;;11.60;5.85;;;;;;;-5.71;62.43;93524.72;5073545;28;20099;-39
2022/01/22 00:38:36;;;;;;;8.27;5.05;;;;;;;-5.85;62.89;93517.25;5071997;28;20055;-38
2022/01/22 00:41:01;;;;;;;20.00;5.25;;;;;;;-5.91;63.70;93522.44;5073331;28;20031;-39
2022/01/22 00:43:27;;;;;;;11.55;4.50;;;;;;;-6.02;63.31;93521.34;5073277;28;20020;-38
2022/01/22 00:45:52;;;;;;;5.47;3.38;;;;;;;-5.92;63.60;93520.94;5073411;28;20120;-40
2022/01/22 00:48:18;;;;;;;5.80;3.05;;;;;;;-5.71;63.76;93524.72;5073233;28;20556;-37
2022/01/22 00:50:44;;;;;;;6.03;2.45;;;;;;;-5.62;62.04;93522.06;5072945;28;20032;-38
2022/01/22 00:53:10;;;;;;;4.15;2.22;;;;;;;-5.54;62.63;93525.97;5072989;28;20107;-39
2022/01/22 00:55:35;;;;;;;4.45;3.10;;;;;;;-5.46;61.61;93527.19;5072997;28;20029;-40
2022/01/22 00:58:01;;;;;;;13.98;4.25;;;;;;;-5.29;61.08;93528.44;5072819;28;20023;-41
2022/01/22 01:00:26;;;;;;;7.68;3.40;;;;;;;-5.36;61.42;93520.63;5073283;28;20020;-40
2022/01/22 01:02:52;;;;;;;5.70;3.15;;;;;;;-5.18;62.09;93523.38;5072748;28;20417;-41
2022/01/22 01:05:17;;;;;;;9.52;3.53;;;;;;;-5.26;61.50;93527.53;5073231;28;20016;-40
2022/01/22 01:07:43;;;;;;;6.03;3.03;;;;;;;-5.18;62.33;93530.69;5056848;28;20052;-41
2022/01/22 01:10:13;;;;;;;9.20;3.30;;;;;;;-5.21;61.81;93531.56;5052932;28;20035;-40
2022/01/22 01:12:40;;;;;;;5.15;3.08;;;;;;;-5.49;62.30;93528.06;5052682;28;20494;-39
2022/01/22 01:34:02;;;;;;;6.97;3.42;;;;;;;-5.86;64.28;93507.66;5067292;28;20051;-37
2022/01/22 01:36:28;;;;;;;7.38;2.88;;;;;;;-5.71;63.29;93508.59;5072346;28;20021;-37
2022/01/22 01:38:58;;;;;;;5.75;2.78;;;;;;;-5.62;62.18;93500.56;5072404;28;20035;-39
2022/01/22 01:41:39;;;;;;;12.95;3.33;;;;;;;-5.71;62.69;93495.91;5072190;28;20028;-39
2022/01/22 01:44:05;;;;;;;4.45;2.83;;;;;;;-5.90;63.66;93496.31;5072143;28;20131;-38
2022/01/22 01:46:32;;;;;;;7.50;2.83;;;;;;;-6.02;62.62;93481.75;5072404;28;20062;-39
2022/01/22 01:48:59;;;;;;;8.35;2.92;;;;;;;-6.18;63.66;93487.38;5072001;28;20544;-38
2022/01/22 01:51:30;;;;;;;5.70;2.65;;;;;;;-6.31;62.81;93473.28;5072273;28;20029;-38
2022/01/22 01:54:10;;;;;;;5.45;2.80;;;;;;;-6.45;63.77;93477.25;5072312;28;20025;-41
2022/01/22 01:59:19;;;;;;;13.32;5.35;;;;;;;-6.28;63.30;93491.94;5072142;28;20741;-39
2022/01/22 02:01:45;;;;;;;16.60;6.10;;;;;;;-6.28;63.76;93486.56;5072135;28;20052;-40
2022/01/22 02:04:13;;;;;;;36.38;13.88;;;;;;;-6.28;63.63;93486.56;5052744;28;20037;-40
2022/01/22 02:06:39;;;;;;;18.48;5.57;;;;;;;-6.46;64.06;93486.50;5056241;28;20024;-39
2022/01/22 02:09:08;;;;;;;10.52;4.63;;;;;;;-6.32;64.45;93491.34;5079896;28;20028;-39
2022/01/22 02:11:34;;;;;;;22.75;8.82;;;;;;;-6.32;65.30;93477.91;5092130;28;20024;-40
2022/01/22 02:24:52;;;;;;;4.55;3.38;;;;;;;-7.16;66.19;93481.69;5071536;28;20114;-39
2022/01/22 02:27:18;;;;;;;4.07;2.78;;;;;;;-7.01;66.49;93482.69;5071255;28;20050;-39
2022/01/22 02:29:44;;;;;;;4.38;2.95;;;;;;;-7.31;66.66;93469.94;5071499;28;20024;-38
2022/01/22 02:32:52;;;;;;;4.90;3.50;;;;;;;-7.34;67.04;93481.53;5070705;28;20032;-39
2022/01/22 02:35:38;;;;;;;54.05;17.58;;;;;;;-7.36;67.10;93467.81;5069817;28;20102;-39
2022/01/22 02:37:58;;;;;;;16.98;5.97;;;;;;;-7.59;67.97;93476.25;5069653;28;20033;-40
2022/01/22 02:40:31;;;;;;;78.07;21.70;;;;;;;-7.49;67.58;93472.44;5071246;28;20409;-39
2022/01/22 02:42:58;;;;;;;10.20;3.65;;;;;;;-7.59;67.76;93467.44;5071247;28;20028;-39
2022/01/22 02:45:24;;;;;;;10.02;4.90;;;;;;;-7.31;67.05;93469.19;5071167;28;20021;-38
2022/01/22 02:47:50;;;;;;;22.90;8.20;;;;;;;-7.54;67.48;93473.03;5071225;28;20012;-38
2022/01/22 02:50:19;;;;;;;54.72;17.33;;;;;;;-7.79;68.26;93456.97;5070803;28;20035;-40
2022/01/22 02:52:46;;;;;;;7.35;4.43;;;;;;;-7.65;67.31;93466.50;5070695;28;20081;-38
2022/01/22 02:55:13;;;;;;;20.70;9.40;;;;;;;-7.87;67.85;93472.53;5071009;28;20103;-39
2022/01/22 02:57:41;;;;;;;10.43;5.25;;;;;;;-8.39;68.28;93464.22;5070675;28;20032;-38
2022/01/22 03:00:11;;;;;;;16.85;6.22;;;;;;;-8.53;69.30;93461.97;5055730;28;20036;-37
2022/01/22 03:02:37;;;;;;;23.50;8.82;;;;;;;-8.24;69.24;93453.81;5050856;28;20423;-39
2022/01/22 03:05:04;;;;;;;40.90;11.57;;;;;;;-8.29;69.56;93454.41;5050817;28;20020;-38
2022/01/22 03:07:29;;;;;;;53.80;19.38;;;;;;;-8.12;69.97;93456.47;5050846;28;20028;-38
2022/01/22 03:10:00;;;;;;;9.15;5.47;;;;;;;-8.47;68.21;93446.88;5050425;28;20020;-39
2022/01/22 03:27:31;;;;;;;13.05;5.38;;;;;;;-9.16;69.72;93453.84;5050567;28;20032;-39
2022/01/22 03:29:58;;;;;;;10.07;5.53;;;;;;;-9.17;68.91;93451.56;5050239;28;20063;-40
2022/01/22 03:32:32;;;;;;;10.40;5.85;;;;;;;-9.39;68.33;93446.78;5053268;28;20119;-40
2022/01/22 03:35:10;;;;;;;4.25;2.50;;;;;;;-9.78;68.91;93454.31;5069878;28;20044;-40
2022/01/22 03:37:36;;;;;;;5.97;3.00;;;;;;;-9.91;70.07;93445.47;5070232;28;20104;-41
2022/01/22 03:40:03;;;;;;;20.33;9.25;;;;;;;-10.13;71.14;93445.25;5070234;28;20124;-39
2022/01/22 03:42:28;;;;;;;14.32;5.82;;;;;;;-10.03;70.70;93440.81;5070420;28;20023;-40
2022/01/22 03:44:54;;;;;;;6.68;3.08;;;;;;;-10.23;70.50;93441.69;5069969;28;20021;-39
2022/01/22 03:47:19;;;;;;;12.75;7.70;;;;;;;-10.14;70.31;93414.41;5070375;28;20016;-41
2022/01/22 03:49:45;;;;;;;12.52;5.75;;;;;;;-9.86;69.74;93431.63;5069819;28;20025;-40
2022/01/22 03:52:11;;;;;;;6.75;4.50;;;;;;;-9.76;69.18;93426.00;5070203;28;20405;-40
2022/01/22 03:54:36;;;;;;;9.63;6.50;;;;;;;-9.88;68.39;93429.38;5069964;28;20409;-39
2022/01/22 03:57:02;;;;;;;14.95;6.57;;;;;;;-9.72;67.47;93423.25;5069847;28;20024;-40
2022/01/22 03:59:30;;;;;;;9.93;4.93;;;;;;;-9.63;67.61;93432.16;5070247;28;20093;-40
2022/01/22 04:04:39;;;;;;;4.25;3.05;;;;;;;-10.52;69.29;93454.16;5070128;28;20489;-40
2022/01/22 04:09:43;;;;;;;3.67;2.33;;;;;;;-9.93;71.46;93442.47;5070251;28;20120;-39
2022/01/22 04:12:14;;;;;;;2.85;2.58;;;;;;;-9.79;73.06;93442.13;5069859;28;20029;-39
2022/01/22 04:14:48;;;;;;;3.30;2.72;;;;;;;-9.80;70.08;93440.63;5070081;28;20025;-39
2022/01/22 04:25:10;;;;;;;7.60;4.45;;;;;;;-10.25;67.15;93406.66;5069771;28;20027;-39
2022/01/22 04:27:35;;;;;;;9.25;4.72;;;;;;;-10.31;67.29;93444.94;5069908;28;20081;-39
2022/01/22 04:30:01;;;;;;;28.58;12.00;;;;;;;-10.45;68.11;93442.59;5069956;28;20107;-40
2022/01/22 04:32:31;;;;;;;19.75;7.72;;;;;;;-10.37;67.81;93436.66;5065791;28;20479;-40
2022/01/22 04:34:57;;;;;;;5.22;2.63;;;;;;;-10.29;67.66;93434.59;5049288;28;20049;-39
2022/01/22 04:37:24;;;;;;;1.67;1.30;;;;;;;-10.37;66.83;93441.28;5049746;28;20017;-40
2022/01/22 04:39:50;;;;;;;3.33;2.40;;;;;;;-10.49;67.14;93425.91;5049466;28;20029;-40
2022/01/22 04:42:16;;;;;;;4.85;1.70;;;;;;;-10.52;65.83;93408.81;5049803;28;20035;-41
2022/01/22 04:45:03;;;;;;;3.83;2.28;;;;;;;-10.18;67.07;93443.84;5049384;28;20071;-40
2022/01/22 04:54:57;;;;;;;4.93;4.00;;;;;;;-9.91;66.28;93440.13;5049408;28;20031;-40
2022/01/22 04:55:26;;;;;;;3.03;1.85;;;;;;;-10.01;66.46;93444.56;5064389;28;20056;-40
2022/01/22 04:57:52;;;;;;;5.95;3.03;;;;;;;-9.89;68.22;93438.53;5068877;28;20056;-41
2022/01/22 05:00:18;;;;;;;8.32;5.20;;;;;;;-9.66;69.24;93434.94;5068995;28;20012;-40
2022/01/22 05:02:43;;;;;;;10.55;6.72;;;;;;;-9.46;68.71;93432.84;5071647;28;20024;-41
2022/01/22 05:05:09;;;;;;;11.95;7.80;;;;;;;-9.31;67.85;93424.03;5072543;28;20495;-39
2022/01/22 05:07:35;;;;;;;12.13;8.48;;;;;;;-9.30;66.93;93425.56;5072040;28;20383;-40
2022/01/22 05:10:02;;;;;;;14.55;8.25;;;;;;;-9.30;66.52;93430.16;5072640;28;20012;-39
2022/01/22 05:12:28;;;;;;;15.38;8.48;;;;;;;-9.71;67.12;93393.44;5072573;28;20089;-39
2022/01/22 05:14:53;;;;;;;11.88;6.38;;;;;;;-9.38;67.11;93421.59;5072147;28;20501;-41
2022/01/22 05:17:19;;;;;;;21.02;11.38;;;;;;;-9.59;67.92;93419.44;5072331;28;20028;-40
2022/01/22 05:19:52;;;;;;;14.20;7.85;;;;;;;-9.60;68.72;93420.63;5072049;28;20024;-40
2022/01/22 05:25:05;;;;;;;17.65;8.13;;;;;;;-9.62;67.17;93414.22;5052517;28;20040;-40
2022/01/22 05:27:55;;;;;;;8.52;6.53;;;;;;;-9.50;67.76;93413.50;5052855;28;20027;-39
2022/01/22 05:38:07;;;;;;;16.08;8.70;;;;;;;-9.34;67.58;93416.13;5051385;28;20036;-40
2022/01/22 05:40:34;;;;;;;21.30;11.30;;;;;;;-9.47;68.00;93410.75;5052425;28;20025;-41
2022/01/22 05:42:59;;;;;;;20.85;12.25;;;;;;;-9.33;69.20;93410.34;5052046;28;20129;-41
2022/01/22 05:45:25;;;;;;;19.70;10.13;;;;;;;-9.36;69.26;93416.56;5052358;28;20056;-40
2022/01/22 05:47:50;;;;;;;34.72;17.65;;;;;;;-9.15;68.81;93403.75;5052114;28;20106;-40
2022/01/22 05:50:45;;;;;;;38.55;20.13;;;;;;;-9.13;68.72;93399.50;5052305;28;20032;-40
2022/01/22 05:53:14;;;;;;;41.70;19.88;;;;;;;-9.06;69.54;93407.31;5070230;28;20058;-40
2022/01/22 06:01:03;;;;;;;25.83;13.48;;;;;;;-8.76;68.26;93398.81;5059599;28;20040;-40
2022/01/22 06:03:29;;;;;;;29.33;13.68;;;;;;;-8.65;68.50;93411.88;5068806;28;20041;-41
2022/01/22 06:05:54;;;;;;;39.85;20.33;;;;;;;-8.62;68.36;93408.34;5059105;28;20558;-40
2022/01/22 06:08:21;;;;;;;51.30;22.27;;;;;;;-8.59;67.35;93399.44;5062394;28;20055;-43
2022/01/22 06:10:53;;;;;;;46.95;19.00;;;;;;;-8.55;66.85;93410.78;5062169;28;20028;-41
2022/01/22 06:13:21;;;;;;;32.55;17.52;;;;;;;-8.60;67.46;93409.38;5061346;28;20620;-42
2022/01/22 06:15:46;;;;;;;28.80;16.55;;;;;;;-8.76;67.77;93398.81;5060282;28;20024;-39
2022/01/22 06:18:12;;;;;;;26.08;12.70;;;;;;;-8.75;68.36;93400.28;5059477;28;20143;-39
2022/01/22 06:20:37;;;;;;;45.50;23.15;;;;;;;-8.75;68.47;93399.56;5062825;28;20017;-41
2022/01/22 06:23:03;;;;;;;37.65;20.90;;;;;;;-8.49;68.64;93400.31;5061228;28;20012;-39
2022/01/22 06:25:29;;;;;;;37.83;17.92;;;;;;;-8.61;69.91;93397.19;5062514;28;20020;-39
2022/01/22 06:27:54;;;;;;;53.95;26.63;;;;;;;-8.31;69.44;93390.53;5071159;28;20021;-38
2022/01/22 06:30:20;;;;;;;75.35;25.80;;;;;;;-8.23;70.35;93388.38;5071532;28;20020;-39
2022/01/22 06:32:46;;;;;;;70.78;29.77;;;;;;;-8.21;73.12;93386.00;5070712;28;20099;-40
2022/01/22 06:35:12;;;;;;;101.75;38.15;;;;;;;-7.86;73.19;93399.00;5070796;28;20053;-40
2022/01/22 06:37:38;;;;;;;66.00;29.27;;;;;;;-7.65;71.54;93402.94;5071351;28;20021;-40
2022/01/22 06:42:32;;;;;;;;;;;;;;;-7.32;68.79;93395.28;5071646;28;20095;-39
2022/01/22 06:44:59;;;;;;;53.50;22.67;;;;;;;-7.19;69.39;93379.88;5069682;28;19995;-41
2022/01/22 06:47:26;;;;;;;44.85;23.40;;;;;;;-7.06;68.94;93377.88;5070642;28;20556;-41
2022/01/22 06:49:52;;;;;;;53.55;25.92;;;;;;;-7.02;67.35;93386.56;5070927;28;20024;-40
2022/01/22 06:52:18;;;;;;;60.58;29.85;;;;;;;-7.01;66.18;93382.66;5071384;28;20081;-40
2022/01/22 06:54:44;;;;;;;48.08;26.30;;;;;;;-6.76;67.15;93373.72;5070979;28;20024;-38
2022/01/22 06:57:10;;;;;;;52.88;28.83;;;;;;;-7.00;67.22;93365.41;5069805;28;20570;-38
2022/01/22 06:59:36;;;;;;;52.55;27.63;;;;;;;-6.61;67.97;93372.00;5069906;28;20033;-39
2022/01/22 07:02:01;;;;;;;34.92;17.63;;;;;;;-6.58;67.35;93368.44;5068977;28;20028;-40
2022/01/22 07:04:27;;;;;;;15.57;8.68;;;;;;;-6.55;68.77;93370.97;5069275;28;20024;-39
2022/01/22 07:06:53;;;;;;;7.35;4.57;;;;;;;-6.33;68.41;93368.22;5064254;28;20013;-40
2022/01/22 07:09:18;;;;;;;10.20;4.95;;;;;;;-6.28;68.67;93363.00;5056547;28;20029;-39
2022/01/22 07:11:44;;;;;;;12.50;6.32;;;;;;;-6.04;68.22;93371.28;5050738;28;20021;-39
2022/01/22 07:14:09;;;;;;;12.48;5.15;;;;;;;-5.79;68.19;93367.56;5062640;28;20021;-40
2022/01/22 07:16:35;;;;;;;9.82;4.65;;;;;;;-5.73;66.69;93360.41;5063510;28;20028;-40
2022/01/22 07:19:02;;;;;;;17.45;10.63;;;;;;;-5.68;66.81;93365.19;5049872;28;20051;-39
2022/01/22 07:21:30;;;;;;;18.98;7.15;;;;;;;-5.74;67.12;93366.97;5055101;28;20390;-40
2022/01/22 07:26:21;;;;;;;14.73;5.93;;;;;;;-5.80;68.41;93356.06;5069209;28;20028;-36
2022/01/22 07:28:47;;;;;;;7.20;4.55;;;;;;;-5.60;67.92;93353.69;5068990;28;20542;-39
2022/01/22 07:31:13;;;;;;;9.85;6.10;;;;;;;-5.44;67.28;93344.59;5069259;28;20029;-40
2022/01/22 07:33:38;;;;;;;13.15;6.25;;;;;;;-5.32;68.01;93348.28;5063549;28;20020;-38
2022/01/22 07:36:04;;;;;;;8.05;4.85;;;;;;;-5.08;67.39;93352.63;5048782;28;20081;-49
2022/01/22 07:38:30;;;;;;;12.85;5.97;;;;;;;-5.04;67.65;93352.44;5049243;28;20509;-39
2022/01/22 07:40:56;;;;;;;9.50;6.00;;;;;;;-4.98;66.79;93347.97;5049202;28;20095;-39
2022/01/22 07:43:21;;;;;;;12.18;5.18;;;;;;;-4.98;67.72;93343.31;5052303;28;20094;-40
2022/01/22 07:45:47;;;;;;;12.93;5.63;;;;;;;-4.79;67.06;93342.09;5068707;28;20567;-39
2022/01/22 07:48:13;;;;;;;9.43;4.53;;;;;;;-4.70;67.82;93338.63;5067876;28;20099;-38
2022/01/22 07:50:38;;;;;;;12.23;6.05;;;;;;;-4.61;67.21;93350.09;5060465;28;20028;-39
2022/01/22 07:53:04;;;;;;;9.10;4.68;;;;;;;-4.64;67.07;93352.97;5052928;28;20051;-39
2022/01/22 07:55:30;;;;;;;15.73;8.60;;;;;;;-4.67;67.69;93351.16;5067244;28;20035;-39
2022/01/22 07:57:55;;;;;;;10.50;5.13;;;;;;;-4.68;67.83;93349.69;5064882;28;20016;-38
2022/01/22 08:00:21;;;;;;;9.73;5.45;;;;;;;-4.53;66.96;93344.38;5056039;28;20442;-39
2022/01/22 08:02:47;;;;;;;6.78;3.83;;;;;;;-4.50;66.89;93338.84;5046776;28;20494;-38
2022/01/22 08:05:13;;;;;;;8.52;4.57;;;;;;;-4.45;66.52;93340.91;5046777;28;20024;-38
2022/01/22 08:07:40;;;;;;;5.30;4.30;;;;;;;-4.16;66.93;93340.34;5045673;28;20391;-39
2022/01/22 08:10:10;;;;;;;10.00;5.15;;;;;;;-3.91;66.84;93332.56;5044243;28;20086;-39
2022/01/22 08:12:37;;;;;;;7.78;4.63;;;;;;;-3.68;65.17;93331.03;5045035;28;20033;-39
2022/01/22 08:15:07;;;;;;;8.45;4.82;;;;;;;-3.66;63.91;93336.72;5045329;28;20518;-38
2022/01/22 08:17:33;;;;;;;6.88;4.53;;;;;;;-3.52;62.95;93330.63;5059229;28;20025;-39
2022/01/22 08:19:59;;;;;;;7.75;4.53;;;;;;;-3.43;62.86;93330.56;5062272;28;20115;-39
2022/01/22 08:22:24;;;;;;;5.85;4.80;;;;;;;-3.13;62.06;93334.06;5065501;28;20021;-39
2022/01/22 08:24:53;;;;;;;9.88;5.95;;;;;;;-2.78;61.61;93334.19;5063037;28;20024;-39
2022/01/22 08:29:54;;;;;;;17.70;8.93;;;;;;;-1.25;59.29;93322.53;5067106;28;20486;-38
2022/01/22 08:32:34;;;;;;;9.77;5.25;;;;;;;-0.12;55.54;93294.69;5063958;28;20028;-39
2022/01/22 08:37:44;;;;;;;8.02;4.20;;;;;;;-0.47;53.37;93308.50;5057271;28;20059;-37
2022/01/22 08:40:10;;;;;;;6.53;4.18;;;;;;;-0.58;53.85;93313.06;5065938;28;20025;-38
2022/01/22 08:42:36;;;;;;;10.60;4.85;;;;;;;-0.64;54.14;93310.34;5060220;28;20043;-39
2022/01/22 08:45:03;;;;;;;19.60;4.80;;;;;;;-0.54;54.43;93303.50;5068836;28;20024;-38
2022/01/22 08:47:28;;;;;;;5.18;3.25;;;;;;;0.18;53.11;93295.09;5070051;28;20390;-37
2022/01/22 08:49:54;;;;;;;7.15;3.70;;;;;;;1.05;51.58;93283.09;5069883;28;20044;-37
2022/01/22 08:52:24;;;;;;;5.60;3.63;;;;;;;1.18;51.37;93286.09;5069968;28;20121;-38
2022/01/22 08:54:50;;;;;;;4.70;4.30;;;;;;;1.16;50.35;93282.38;5070367;28;20032;-37
2022/01/22 08:57:15;;;;;;;7.80;4.68;;;;;;;1.63;49.93;93286.09;5057571;28;20755;-38
2022/01/22 08:59:42;;;;;;;5.90;3.60;;;;;;;2.49;46.10;93285.00;5053600;28;20027;-38
2022/01/22 09:02:07;;;;;;;4.97;3.90;;;;;;;2.03;47.33;93266.53;5061291;28;20025;-36
2022/01/22 09:04:33;;;;;;;7.20;4.00;;;;;;;1.90;48.20;93256.16;5049662;28;20048;-38
2022/01/22 09:07:00;;;;;;;5.68;4.00;;;;;;;1.95;48.42;93279.19;5050650;28;20078;-37
2022/01/22 09:09:26;;;;;;;6.40;4.78;;;;;;;2.63;46.81;93278.50;5049013;28;20017;-38
2022/01/22 09:11:52;;;;;;;8.75;4.57;;;;;;;3.17;46.27;93274.00;5056515;28;20016;-38
2022/01/22 09:14:18;;;;;;;7.50;4.57;;;;;;;3.82;44.06;93258.41;5069064;28;20528;-38
2022/01/22 09:16:45;;;;;;;5.10;4.35;;;;;;;4.20;43.64;93264.75;5065187;28;20013;-38
2022/01/22 09:19:11;;;;;;;7.25;5.13;;;;;;;4.85;42.70;93269.25;5071443;28;20024;-38
2022/01/22 09:21:41;;;;;;;5.07;3.50;;;;;;;4.78;41.10;93245.22;5069511;28;20044;-38
2022/01/22 09:24:07;;;;;;;8.93;4.20;;;;;;;4.42;41.71;93261.78;5067099;28;20016;-38
2022/01/22 09:26:33;;;;;;;5.50;4.30;;;;;;;4.24;41.25;93257.03;5069128;28;20016;-37
2022/01/22 09:29:00;;;;;;;5.38;4.13;;;;;;;3.50;43.08;93262.13;5068747;28;20583;-37
2022/01/22 09:31:28;;;;;;;6.97;3.97;;;;;;;2.87;44.50;93263.03;5068738;28;20060;-37
2022/01/22 09:33:59;;;;;;;11.15;6.53;;;;;;;2.49;45.94;93258.47;5053359;28;20075;-37
2022/01/22 09:36:26;;;;;;;6.65;5.13;;;;;;;1.56;47.31;93264.84;5055494;28;20449;-37
2022/01/22 09:38:52;;;;;;;17.75;6.00;;;;;;;0.97;49.59;93260.34;5049227;28;20051;-37
2022/01/22 09:41:18;;;;;;;7.28;5.38;;;;;;;0.81;49.91;93254.88;5049299;28;20494;-37
2022/01/22 09:43:44;;;;;;;6.10;4.57;;;;;;;0.25;51.77;93224.81;5066192;28;20420;-36
2022/01/22 09:46:10;;;;;;;7.93;5.10;;;;;;;0.14;51.90;93232.91;5069424;28;20467;-37
2022/01/22 09:48:43;;;;;;;6.60;4.57;;;;;;;0.08;52.57;93231.41;5067854;28;20063;-36
2022/01/22 09:51:10;;;;;;;5.93;4.30;;;;;;;-0.20;52.01;93242.13;5066517;28;20496;-37
2022/01/22 09:53:36;;;;;;;8.52;3.53;;;;;;;-0.34;53.09;93235.63;5068660;28;20658;-37
2022/01/22 09:56:01;;;;;;;4.93;3.50;;;;;;;-0.58;53.09;93243.34;5068844;28;20187;-37
2022/01/22 09:58:27;;;;;;;6.85;4.90;;;;;;;-1.10;54.99;93231.06;5069094;28;20053;-36
2022/01/22 10:00:52;;;;;;;5.68;3.80;;;;;;;-1.08;55.48;93237.50;5068809;28;20452;-37
2022/01/22 10:03:20;;;;;;;7.13;3.85;;;;;;;-1.15;54.99;93227.09;5067934;28;20634;-37
2022/01/22 10:05:47;;;;;;;5.97;4.50;;;;;;;-1.41;56.30;93225.63;5068248;28;20036;-36
2022/01/22 10:08:31;;;;;;;7.07;4.30;;;;;;;-1.22;56.43;93215.97;5067554;28;20561;-37
2022/01/22 10:11:01;;;;;;;9.35;4.32;;;;;;;-1.29;56.96;93217.13;5067408;28;20036;-37
2022/01/22 10:13:42;;;;;;;6.95;4.32;;;;;;;-1.38;57.19;93211.88;5068271;28;20036;-37
2022/01/22 10:16:18;;;;;;;4.50;3.03;;;;;;;-1.21;57.07;93220.16;5066705;28;20032;-36
2022/01/22 10:18:44;;;;;;;4.38;3.20;;;;;;;-1.05;57.11;93203.31;5067557;28;20596;-37
2022/01/22 10:21:12;;;;;;;7.68;4.32;;;;;;;-0.86;56.71;93188.16;5067943;28;20043;-37
2022/01/22 10:23:41;;;;;;;8.02;4.28;;;;;;;-0.51;56.50;93185.22;5068149;28;20059;-37
2022/01/22 10:26:14;;;;;;;5.47;4.00;;;;;;;0.48;53.96;93188.34;5067687;28;20033;-38
2022/01/22 10:28:46;;;;;;;4.65;3.55;;;;;;;1.23;50.18;93176.59;5065892;28;20112;-37
2022/01/22 10:31:22;;;;;;;8.18;4.28;;;;;;;2.12;48.66;93171.69;5067589;28;20141;-37
2022/01/22 10:34:10;;;;;;;5.93;3.13;;;;;;;2.68;46.26;93161.28;5064932;28;20024;-38
2022/01/22 10:36:36;;;;;;;5.40;4.15;;;;;;;3.28;44.94;93162.09;5065056;28;20032;-37
2022/01/22 10:39:22;;;;;;;6.38;4.25;;;;;;;2.90;45.85;93158.38;5066357;28;20543;-38
2022/01/22 10:41:49;;;;;;;5.18;3.35;;;;;;;3.83;43.45;93150.63;5066822;28;20032;-38
2022/01/22 10:44:19;;;;;;;8.52;4.32;;;;;;;3.76;44.37;93150.47;5067733;28;20055;-38
2022/01/22 10:49:19;;;;;;;8.13;4.47;;;;;;;4.30;42.53;93133.97;5069559;28;20036;-37
2022/01/22 10:51:56;;;;;;;6.38;5.05;;;;;;;4.71;41.57;93122.75;5069671;28;20025;-37
2022/01/22 10:54:26;;;;;;;6.80;4.30;;;;;;;6.01;38.21;93130.59;5070336;28;20437;-37
2022/01/22 10:56:53;;;;;;;10.35;4.20;;;;;;;5.75;38.58;93134.03;5068522;28;20029;-38
2022/01/22 10:59:20;;;;;;;8.82;4.70;;;;;;;6.05;38.23;93139.22;5070131;28;20055;-38
2022/01/22 11:01:59;;;;;;;7.30;5.85;;;;;;;6.05;36.46;93131.75;5069363;28;20090;-37
2022/01/22 11:04:26;;;;;;;7.45;4.55;;;;;;;5.59;37.20;93115.88;5069938;28;20486;-38
2022/01/22 11:07:00;;;;;;;6.22;3.25;;;;;;;5.30;36.92;93114.88;5069610;28;20024;-38
2022/01/22 11:09:29;;;;;;;4.80;3.00;;;;;;;5.39;37.17;93116.47;5070186;28;20684;-38
2022/01/22 11:11:55;;;;;;;5.82;4.18;;;;;;;6.29;36.70;93108.84;5068385;28;20112;-38
2022/01/22 11:14:21;;;;;;;6.00;4.78;;;;;;;6.59;35.43;93106.47;5069426;28;20111;-38
2022/01/22 11:16:48;;;;;;;5.05;3.08;;;;;;;7.43;32.49;93078.56;5069438;28;20036;-39
2022/01/22 11:19:18;;;;;;;5.05;2.47;;;;;;;7.83;29.95;93100.31;5069613;28;20035;-38
2022/01/22 11:21:47;;;;;;;5.55;3.03;;;;;;;8.67;29.88;93107.75;5069182;28;20530;-38
2022/01/22 11:24:15;;;;;;;3.78;2.30;;;;;;;7.36;32.33;93120.44;5068748;28;20024;-39
2022/01/22 11:26:46;;;;;;;11.25;3.75;;;;;;;6.92;33.82;93118.00;5067199;28;20025;-38
2022/01/22 11:29:12;;;;;;;6.13;3.67;;;;;;;6.10;36.02;93113.72;5067096;28;20082;-37
2022/01/22 11:31:39;;;;;;;5.93;3.17;;;;;;;6.06;36.56;93102.34;5068827;28;20103;-38
2022/01/22 11:34:05;;;;;;;7.05;4.45;;;;;;;6.35;35.61;93111.47;5067035;28;20041;-38
2022/01/22 11:36:36;;;;;;;5.88;3.60;;;;;;;6.52;35.20;93100.91;5067575;28;20025;-39
2022/01/22 11:39:04;;;;;;;4.38;3.63;;;;;;;6.56;34.34;93071.16;5068202;28;20052;-37
2022/01/22 11:41:29;;;;;;;5.95;4.00;;;;;;;5.77;35.47;93106.84;5068441;28;20056;-37
2022/01/22 11:44:11;;;;;;;5.55;4.47;;;;;;;5.12;38.30;93101.22;5068554;28;20502;-38
2022/01/22 11:46:43;;;;;;;7.97;4.18;;;;;;;4.53;39.79;93108.56;5057508;28;20052;-37
2022/01/22 11:49:21;;;;;;;8.80;4.75;;;;;;;3.31;41.47;93117.41;5068252;28;20029;-38
2022/01/22 11:51:49;;;;;;;6.38;4.28;;;;;;;3.09;43.55;93120.34;5069095;28;20135;-37
2022/01/22 11:54:18;;;;;;;6.53;3.65;;;;;;;2.48;43.90;93106.38;5067994;28;20479;-37
2022/01/22 11:56:52;;;;;;;5.15;3.13;;;;;;;2.20;45.51;93114.72;5069013;28;20511;-37
2022/01/22 11:59:30;;;;;;;7.20;4.45;;;;;;;1.69;46.02;93118.16;5067975;28;20034;-37
2022/01/22 12:02:00;;;;;;;6.07;3.83;;;;;;;1.49;47.61;93119.91;5068767;28;20028;-37
2022/01/22 12:04:46;;;;;;;6.85;4.50;;;;;;;1.17;49.53;93116.00;5067661;28;20082;-37
2022/01/22 12:07:20;;;;;;;9.13;5.38;;;;;;;0.98;50.52;93112.31;5068874;28;20510;-37
2022/01/22 12:09:53;;;;;;;5.32;3.90;;;;;;;0.80;51.87;93126.44;5069100;28;20029;-37
2022/01/22 12:15:08;;;;;;;6.15;4.45;;;;;;;0.18;56.80;93113.97;5072526;28;20437;-37
2022/01/22 12:18:02;;;;;;;8.43;4.30;;;;;;;-0.13;58.76;93122.28;5072936;28;20456;-37
2022/01/22 12:23:31;;;;;;;7.22;4.50;;;;;;;-0.71;62.30;93109.44;5072246;28;20550;-37
2022/01/22 12:25:58;;;;;;;6.82;4.80;;;;;;;-0.58;62.48;93113.19;5051631;28;20044;-37
2022/01/22 12:28:41;;;;;;;9.30;5.70;;;;;;;-0.56;62.52;93116.16;5070332;28;20039;-37
2022/01/22 12:31:11;;;;;;;10.18;4.90;;;;;;;-0.67;61.43;93112.66;5071365;28;20509;-37
2022/01/22 12:33:37;;;;;;;8.52;4.90;;;;;;;-0.72;62.32;93111.41;5067090;28;20040;-37
2022/01/22 12:36:08;;;;;;;8.57;5.40;;;;;;;-0.63;62.45;93119.34;5071228;28;20053;-37
2022/01/22 12:41:25;;;;;;;8.80;4.70;;;;;;;-0.56;62.67;93116.16;5070288;28;20045;-37
2022/01/22 12:43:51;;;;;;;7.80;4.97;;;;;;;-0.69;63.04;93115.13;5070144;28;20028;-38
2022/01/22 12:46:16;;;;;;;10.63;6.60;;;;;;;-0.48;62.66;93121.88;5070467;28;20031;-37
2022/01/22 12:48:48;;;;;;;8.93;5.00;;;;;;;-0.57;63.25;93117.41;5070031;28;20031;-37
2022/01/22 12:51:13;;;;;;;8.30;5.05;;;;;;;-0.44;62.87;93108.84;5069309;28;20087;-37
2022/01/22 12:53:47;;;;;;;9.18;4.93;;;;;;;-0.61;62.82;93106.06;5068802;28;20471;-38
2022/01/22 12:56:48;;;;;;;18.00;6.32;;;;;;;-0.55;60.84;93106.06;5069753;28;20056;-37
2022/01/22 12:59:10;;;;;;;11.60;5.60;;;;;;;-0.50;61.62;93106.09;5068828;28;20036;-37
2022/01/22 13:01:38;;;;;;;11.18;7.18;;;;;;;-0.42;61.88;93114.50;5069723;28;20095;-38
2022/01/22 13:04:07;;;;;;;10.23;6.85;;;;;;;-0.30;62.59;93114.06;5069543;28;20028;-37
2022/01/22 13:06:39;;;;;;;;;;;;;;;-0.20;61.54;93109.94;5070041;28;20498;-38
2022/01/22 13:09:05;;;;;;;5.75;3.55;;;;;;;-0.67;61.68;93101.81;5069681;28;20002;-37
2022/01/22 13:11:32;;;;;;;5.65;4.28;;;;;;;-0.75;60.04;93112.38;5069473;28;20413;-38
2022/01/22 13:13:58;;;;;;;6.63;4.53;;;;;;;-0.79;62.41;93114.56;5069531;28;20033;-37
2022/01/22 13:16:24;;;;;;;26.33;13.55;;;;;;;-0.83;62.22;93103.97;5062591;28;20468;-37
2022/01/22 13:19:00;;;;;;;22.38;12.35;;;;;;;-0.89;64.24;93111.28;5049563;28;20024;-37
2022/01/22 13:21:31;;;;;;;4.93;3.72;;;;;;;-0.93;64.08;93110.78;5053717;28;20032;-37
2022/01/22 13:24:04;;;;;;;12.75;7.90;;;;;;;-1.05;64.18;93109.22;5068490;28;20035;-37